createdAt,value
2022-12-20T00:02:22.225Z,99112.34
2022-12-20T00:04:52.965Z,99108.63
2022-12-20T00:07:26.225Z,99106.69
2022-12-20T00:09:56.798Z,99109.94
2022-12-20T00:12:27.748Z,99104.53
2022-12-20T00:14:58.365Z,99092.28
2022-12-20T00:17:30.796Z,99109.41
2022-12-20T00:20:01.420Z,99105.84
2022-12-20T00:22:34.920Z,99112.56
2022-12-20T00:25:05.411Z,99109.03
2022-12-20T00:27:36.288Z,99103.72
2022-12-20T00:30:07.725Z,99107.09
2022-12-20T00:32:38.265Z,99103.72
2022-12-20T00:35:10.493Z,99101.09
2022-12-20T00:37:46.931Z,99111.66
2022-12-20T00:40:18.073Z,99105.97
2022-12-20T00:42:48.627Z,99107.22
2022-12-20T00:45:19.414Z,99114.28
2022-12-20T00:47:49.963Z,99110.88
2022-12-20T00:50:20.660Z,99101.25
2022-12-20T00:52:53.862Z,99098.09
2022-12-20T00:55:24.687Z,99092.03
2022-12-20T00:57:55.365Z,99081.59
2022-12-20T01:00:26.193Z,99078.75
2022-12-20T01:02:56.793Z,99076.59
2022-12-20T01:05:27.480Z,99085.44
2022-12-20T01:08:00.737Z,99078.66
2022-12-20T01:10:31.453Z,99080.44
2022-12-20T01:13:03.029Z,99082.22
2022-12-20T01:15:33.722Z,99072.69
2022-12-20T01:18:09.040Z,99061.44
2022-12-20T01:20:39.632Z,99064.84
2022-12-20T01:23:12.767Z,99059.59
2022-12-20T01:25:43.400Z,99056.91
2022-12-20T01:28:13.944Z,99061.19
2022-12-20T01:30:45.624Z,99052.59
2022-12-20T01:33:16.545Z,99050.91
2022-12-20T01:35:58.491Z,99042.38
2022-12-20T01:38:32.512Z,99042.47
2022-12-20T01:41:03.331Z,99039.13
2022-12-20T01:43:50.496Z,99034.88
2022-12-20T01:46:22.388Z,99032.38
2022-12-20T01:48:57.091Z,99043.59
2022-12-20T01:51:29.023Z,99037.53
2022-12-20T01:54:08.089Z,99022.03
2022-12-20T01:56:42.316Z,99027.91
2022-12-20T01:59:14.275Z,99030.41
2022-12-20T02:01:46.424Z,99020.84
2022-12-20T02:04:17.268Z,99022.47
2022-12-20T02:06:47.973Z,99018.16
2022-12-20T02:09:21.408Z,99018.19
2022-12-20T02:12:08.237Z,99002.75
2022-12-20T02:14:56.048Z,98988.16
2022-12-20T02:17:31.686Z,99004.25
2022-12-20T02:20:41.575Z,99000.59
2022-12-20T02:23:30.404Z,98997.75
2022-12-20T02:26:21.914Z,98990.38
2022-12-20T02:29:10.883Z,98987.22
2022-12-20T02:31:51.356Z,98994.31
2022-12-20T02:34:25.239Z,98987.53
2022-12-20T02:36:57.041Z,98987.66
2022-12-20T02:39:30.442Z,98986.88
2022-12-20T02:42:04.723Z,98989.44
2022-12-20T02:44:50.302Z,98982.50
2022-12-20T02:47:28.512Z,98987.59
2022-12-20T02:50:00.271Z,98989.22
2022-12-20T02:52:33.068Z,98985.72
2022-12-20T02:55:04.865Z,98981.38
2022-12-20T02:57:46.128Z,98988.31
2022-12-20T03:00:19.811Z,98989.03
2022-12-20T03:03:06.254Z,98992.31
2022-12-20T03:05:39.441Z,98986.78
2022-12-20T03:08:11.776Z,98983.53
2022-12-20T03:10:42.506Z,98974.31
2022-12-20T03:13:13.533Z,98983.25
2022-12-20T03:15:51.781Z,98979.06
2022-12-20T03:18:25.642Z,98974.91
2022-12-20T03:20:56.500Z,98975.84
2022-12-20T03:23:27.580Z,98977.63
2022-12-20T03:25:58.523Z,98975.91
2022-12-20T03:28:35.806Z,98982.75
2022-12-20T03:31:06.962Z,98978.41
2022-12-20T03:33:48.861Z,98979.19
2022-12-20T03:36:23.700Z,98979.06
2022-12-20T03:38:59.367Z,98975.56
2022-12-20T03:41:32.355Z,98967.72
2022-12-20T03:44:03.513Z,98965.06
2022-12-20T03:46:34.370Z,98966.59
2022-12-20T03:49:09.422Z,98970.72
2022-12-20T03:51:47.705Z,98968.00
2022-12-20T03:54:18.396Z,98975.56
2022-12-20T03:57:06.307Z,98977.09
2022-12-20T03:59:37.463Z,98976.94
2022-12-20T04:02:09.863Z,98972.50
2022-12-20T04:04:43.057Z,98979.25
2022-12-20T04:07:14.153Z,98977.41
2022-12-20T04:09:48.560Z,98966.03
2022-12-20T04:12:20.048Z,98969.38
2022-12-20T04:14:50.657Z,98967.53
2022-12-20T04:17:21.360Z,98965.72
2022-12-20T04:19:55.088Z,98962.19
2022-12-20T04:22:26.731Z,98965.56
2022-12-20T04:25:07.025Z,98966.38
2022-12-20T04:27:43.697Z,98961.13
2022-12-20T04:30:15.804Z,98959.34
2022-12-20T04:32:46.917Z,98960.19
2022-12-20T04:35:21.423Z,98954.13
2022-12-20T04:37:52.094Z,98955.00
2022-12-20T04:40:22.682Z,98951.50
2022-12-20T04:42:57.934Z,98959.28
2022-12-20T04:45:28.560Z,98944.69
2022-12-20T04:48:14.691Z,98948.94
2022-12-20T04:50:55.562Z,98940.28
2022-12-20T04:53:39.847Z,98941.16
2022-12-20T04:56:11.313Z,98939.44
2022-12-20T04:58:42.012Z,98932.47
2022-12-20T05:01:14.128Z,98931.63
2022-12-20T05:03:52.410Z,98928.16
2022-12-20T05:06:26.203Z,98931.63
2022-12-20T05:08:56.842Z,98929.03
2022-12-20T05:11:28.389Z,98925.59
2022-12-20T05:13:59.729Z,98930.81
2022-12-20T05:16:30.604Z,98925.72
2022-12-20T05:19:03.544Z,98921.38
2022-12-20T05:21:54.278Z,98919.69
2022-12-20T05:24:37.706Z,98915.44
2022-12-20T05:27:19.323Z,98920.63
2022-12-20T05:29:50.230Z,98924.09
2022-12-20T05:32:21.044Z,98919.78
2022-12-20T05:34:51.770Z,98922.38
2022-12-20T05:37:26.689Z,98919.78
2022-12-20T05:39:59.874Z,98928.38
2022-12-20T05:42:30.561Z,98921.50
2022-12-20T05:45:01.537Z,98933.56
2022-12-20T05:47:35.194Z,98931.84
2022-12-20T05:50:18.506Z,98933.53
2022-12-20T05:53:12.242Z,98933.50
2022-12-20T05:55:52.174Z,98941.19
2022-12-20T05:58:23.928Z,98934.25
2022-12-20T06:01:00.235Z,98920.38
2022-12-20T06:03:31.401Z,98930.72
2022-12-20T06:06:06.061Z,98928.91
2022-12-20T06:08:41.969Z,98929.72
2022-12-20T06:11:18.136Z,98924.50
2022-12-20T06:13:58.237Z,98919.28
2022-12-20T06:16:29.082Z,98923.53
2022-12-20T06:19:01.049Z,98930.44
2022-12-20T06:21:32.475Z,98935.56
2022-12-20T06:24:07.357Z,98932.97
2022-12-20T06:26:40.800Z,98934.66
2022-12-20T06:29:14.520Z,98933.78
2022-12-20T06:31:50.927Z,98929.31
2022-12-20T06:34:21.952Z,98928.44
2022-12-20T06:36:52.640Z,98926.69
2022-12-20T06:39:30.492Z,98926.69
2022-12-20T06:42:07.389Z,98930.06
2022-12-20T06:44:39.495Z,98937.78
2022-12-20T06:47:10.627Z,98937.69
2022-12-20T06:49:42.777Z,98910.16
2022-12-20T06:52:21.977Z,98920.28
2022-12-20T06:54:57.628Z,98922.84
2022-12-20T06:57:28.331Z,98911.53
2022-12-20T06:59:59.886Z,98914.06
2022-12-20T07:02:30.848Z,98912.22
2022-12-20T07:05:01.579Z,98908.66
2022-12-20T07:07:38.567Z,98905.91
2022-12-20T07:10:16.393Z,98906.47
2022-12-20T07:12:48.428Z,98906.22
2022-12-20T07:15:19.476Z,98908.53
2022-12-20T07:17:50.079Z,98902.13
2022-12-20T07:20:21.308Z,98894.00
2022-12-20T07:22:52.202Z,98902.34
2022-12-20T07:25:25.815Z,98892.47
2022-12-20T07:27:56.953Z,98883.47
2022-12-20T07:30:27.537Z,98882.22
2022-12-20T07:32:58.843Z,98883.50
2022-12-20T07:35:29.777Z,98877.03
2022-12-20T07:38:00.963Z,98877.38
2022-12-20T07:40:34.112Z,98875.94
2022-12-20T07:43:04.776Z,98876.19
2022-12-20T07:45:35.367Z,98871.16
2022-12-20T07:48:11.306Z,98870.50
2022-12-20T07:50:45.186Z,98861.06
2022-12-20T07:53:15.755Z,98862.97
2022-12-20T07:55:49.263Z,98864.84
2022-12-20T07:58:22.000Z,98865.13
2022-12-20T08:00:53.456Z,98868.06
2022-12-20T08:03:27.027Z,98876.25
2022-12-20T08:06:04.078Z,98870.53
2022-12-20T08:08:37.511Z,98864.91
2022-12-20T08:11:12.918Z,98867.13
2022-12-20T08:13:46.588Z,98856.28
2022-12-20T08:16:17.691Z,98850.69
2022-12-20T08:18:48.351Z,98849.41
2022-12-20T08:21:19.378Z,98837.97
2022-12-20T08:23:50.036Z,98842.22
2022-12-20T08:26:23.202Z,98842.09
2022-12-20T08:28:53.824Z,98837.84
2022-12-20T08:31:24.518Z,98835.97
2022-12-20T08:33:58.100Z,98831.28
2022-12-20T08:36:28.691Z,98826.31
2022-12-20T08:38:59.316Z,98820.53
2022-12-20T08:41:32.520Z,98819.16
2022-12-20T08:44:03.236Z,98820.34
2022-12-20T08:46:33.918Z,98809.34
2022-12-20T08:49:04.666Z,98803.53
2022-12-20T08:51:35.254Z,98802.25
2022-12-20T08:54:06.020Z,98797.41
2022-12-20T08:56:39.204Z,98797.16
2022-12-20T08:59:09.880Z,98792.56
2022-12-20T09:01:40.601Z,98793.13
2022-12-20T09:04:14.967Z,98792.06
2022-12-20T09:06:45.524Z,98770.16
2022-12-20T09:09:16.683Z,98770.03
2022-12-20T09:11:49.830Z,98768.13
2022-12-20T09:14:22.344Z,98771.44
2022-12-20T09:16:53.021Z,98765.91
2022-12-20T09:19:23.618Z,98753.44
2022-12-20T09:21:55.629Z,98756.63
2022-12-20T09:24:26.251Z,98751.00
2022-12-20T09:27:00.082Z,98753.34
2022-12-20T09:29:35.530Z,98744.47
2022-12-20T09:32:06.250Z,98737.59
2022-12-20T09:34:36.817Z,98737.81
2022-12-20T09:37:07.363Z,98729.25
2022-12-20T09:39:38.138Z,98731.09
2022-12-20T09:42:13.441Z,98726.78
2022-12-20T09:44:45.765Z,98725.09
2022-12-20T09:47:21.078Z,98724.22
2022-12-20T09:49:57.529Z,98718.28
2022-12-20T09:52:50.720Z,98713.19
2022-12-20T09:55:31.658Z,98697.06
2022-12-20T09:58:22.294Z,98719.41
2022-12-20T10:00:54.796Z,98699.44
2022-12-20T10:03:29.240Z,98693.34
2022-12-20T10:06:03.899Z,98690.81
2022-12-20T10:08:47.237Z,98693.50
2022-12-20T10:11:40.711Z,98682.16
2022-12-20T10:14:21.182Z,98680.47
2022-12-20T10:16:57.118Z,98678.78
2022-12-20T10:19:45.532Z,98668.50
2022-12-20T10:22:22.685Z,98667.81
2022-12-20T10:25:02.070Z,98661.78
2022-12-20T10:27:38.090Z,98654.78
2022-12-20T10:30:16.216Z,98646.00
2022-12-20T10:32:49.105Z,98644.78
2022-12-20T10:35:29.252Z,98643.47
2022-12-20T10:38:10.252Z,98621.97
2022-12-20T10:43:45.828Z,98612.53
2022-12-20T10:46:19.895Z,98612.66
2022-12-20T10:48:52.047Z,98608.56
2022-12-20T10:51:24.840Z,98600.03
2022-12-20T10:54:01.453Z,98591.66
2022-12-20T10:56:34.284Z,98598.13
2022-12-20T10:59:08.627Z,98596.03
2022-12-20T11:01:47.319Z,98591.16
2022-12-20T11:04:30.199Z,98588.91
2022-12-20T11:07:02.364Z,98578.97
2022-12-20T11:09:35.344Z,98578.97
2022-12-20T11:12:09.217Z,98562.88
2022-12-20T11:14:42.057Z,98558.13
2022-12-20T11:17:30.085Z,98541.16
2022-12-20T11:20:33.605Z,98536.22
2022-12-20T11:23:18.512Z,98530.72
2022-12-20T11:26:04.291Z,98520.19
2022-12-20T11:28:48.792Z,98512.41
2022-12-20T11:31:28.700Z,98508.81
2022-12-20T11:34:21.786Z,98503.56
2022-12-20T11:37:13.726Z,98499.91
2022-12-20T11:39:51.798Z,98491.84
2022-12-20T11:42:35.186Z,98493.53
2022-12-20T11:45:13.875Z,98489.81
2022-12-20T11:48:05.627Z,98494.19
2022-12-20T11:50:52.661Z,98497.53
2022-12-20T11:53:29.796Z,98492.06
2022-12-20T11:56:05.513Z,98482.41
2022-12-20T11:58:49.317Z,98489.44
2022-12-20T12:01:22.674Z,98481.66
2022-12-20T12:04:04.754Z,98480.81
2022-12-20T12:06:40.811Z,98473.78
2022-12-20T12:09:25.969Z,98466.63
2022-12-20T12:12:08.486Z,98469.16
2022-12-20T12:14:52.148Z,98464.72
2022-12-20T12:17:31.054Z,98470.94
2022-12-20T12:20:21.200Z,98469.34
2022-12-20T12:23:01.143Z,98478.16
2022-12-20T12:25:31.790Z,98471.22
2022-12-20T12:28:02.484Z,98468.69
2022-12-20T12:30:42.615Z,98466.31
2022-12-20T12:33:24.347Z,98460.47
2022-12-20T12:36:12.907Z,98466.13
2022-12-20T12:39:19.107Z,98469.09
2022-12-20T12:42:23.342Z,98466.81
2022-12-20T12:44:57.951Z,98462.69
2022-12-20T12:47:42.299Z,98468.78
2022-12-20T12:50:24.734Z,98468.88
2022-12-20T12:52:57.523Z,98468.31
2022-12-20T12:55:46.264Z,98483.56
2022-12-20T12:58:34.626Z,98475.19
2022-12-20T13:01:09.214Z,98484.09
2022-12-20T13:03:46.343Z,98476.47
2022-12-20T13:06:47.586Z,98482.91
2022-12-20T13:09:39.011Z,98470.88
2022-12-20T13:12:51.776Z,98481.81
2022-12-20T13:15:54.531Z,98476.13
2022-12-20T13:18:37.214Z,98472.25
2022-12-20T13:21:35.814Z,98473.53
2022-12-20T13:24:42.851Z,98462.09
2022-12-20T13:27:41.769Z,98464.47
2022-12-20T13:30:28.986Z,98463.88
2022-12-20T13:33:16.156Z,98461.34
2022-12-20T13:36:05.435Z,98460.59
2022-12-20T13:39:07.596Z,98466.00
2022-12-20T13:41:44.605Z,98470.28
2022-12-20T13:44:43.226Z,98463.53
2022-12-20T13:47:33.078Z,98463.59
2022-12-20T13:50:06.011Z,98458.44
2022-12-20T13:52:46.312Z,98455.81
2022-12-20T13:55:26.261Z,98459.38
2022-12-20T13:57:57.623Z,98453.53
2022-12-20T14:00:29.920Z,98447.84
2022-12-20T14:03:01.010Z,98461.88
2022-12-20T14:05:36.581Z,98452.56
2022-12-20T14:08:12.611Z,98443.09
2022-12-20T14:10:43.136Z,98438.94
2022-12-20T14:13:25.335Z,98428.53
2022-12-20T14:15:56.788Z,98435.63
2022-12-20T14:18:29.138Z,98432.34
2022-12-20T14:21:02.819Z,98429.88
2022-12-20T14:23:41.224Z,98421.06
2022-12-20T14:26:16.671Z,98426.47
2022-12-20T14:28:49.055Z,98413.47
2022-12-20T14:31:31.349Z,98412.63
2022-12-20T14:34:07.588Z,98409.25
2022-12-20T14:36:38.343Z,98409.41
2022-12-20T14:39:28.893Z,98401.69
2022-12-20T14:42:00.825Z,98395.84
2022-12-20T14:44:33.898Z,98403.78
2022-12-20T14:47:08.587Z,98405.72
2022-12-20T14:49:41.530Z,98398.16
2022-12-20T14:52:18.457Z,98401.72
2022-12-20T14:55:10.035Z,98400.19
2022-12-20T14:57:49.807Z,98392.41
2022-12-20T15:00:27.838Z,98392.41
2022-12-20T15:03:05.002Z,98397.81
2022-12-20T15:05:45.779Z,98394.34
2022-12-20T15:08:18.571Z,98400.59
2022-12-20T15:11:04.091Z,98394.66
2022-12-20T15:13:36.455Z,98392.19
2022-12-20T15:16:09.294Z,98391.34
2022-12-20T15:18:41.023Z,98394.13
2022-12-20T15:21:16.998Z,98392.59
2022-12-20T15:23:51.767Z,98391.81
2022-12-20T15:26:26.546Z,98384.50
2022-12-20T15:28:57.809Z,98397.59
2022-12-20T15:31:33.817Z,98389.13
2022-12-20T15:34:07.121Z,98383.34
2022-12-20T15:36:38.645Z,98388.91
2022-12-20T15:39:13.690Z,98383.00
2022-12-20T15:41:50.480Z,98373.19
2022-12-20T15:44:23.786Z,98384.22
2022-12-20T15:46:55.074Z,98381.66
2022-12-20T15:49:27.387Z,98381.75
2022-12-20T15:51:58.556Z,98387.06
2022-12-20T15:54:31.862Z,98382.66
2022-12-20T15:57:07.880Z,98385.44
2022-12-20T16:02:31.744Z,98390.78
2022-12-20T16:05:02.364Z,98381.19
2022-12-20T16:07:33.779Z,98385.59
2022-12-20T16:10:04.413Z,98386.59
2022-12-20T16:12:39.613Z,98384.88
2022-12-20T16:15:22.462Z,98382.38
2022-12-20T16:17:53.177Z,98378.22
2022-12-20T16:20:23.776Z,98380.03
2022-12-20T16:22:54.403Z,98374.94
2022-12-20T16:25:30.354Z,98386.50
2022-12-20T16:28:03.927Z,98376.19
2022-12-20T16:30:35.112Z,98378.94
2022-12-20T16:33:06.818Z,98371.34
2022-12-20T16:35:39.390Z,98372.34
2022-12-20T16:38:10.021Z,98379.38
2022-12-20T16:40:40.621Z,98371.91
2022-12-20T16:43:18.555Z,98368.59
2022-12-20T16:45:49.330Z,98371.34
2022-12-20T16:48:20.275Z,98368.13
2022-12-20T16:50:51.071Z,98362.16
2022-12-20T16:53:21.826Z,98360.53
2022-12-20T16:55:52.488Z,98365.09
2022-12-20T16:58:45.011Z,98364.38
2022-12-20T17:01:19.437Z,98364.59
2022-12-20T17:03:50.549Z,98361.22
2022-12-20T17:06:22.020Z,98362.28
2022-12-20T17:08:52.930Z,98352.03
2022-12-20T17:11:25.607Z,98353.94
2022-12-20T17:13:59.965Z,98357.59
2022-12-20T17:16:31.070Z,98355.28
2022-12-20T17:19:01.919Z,98347.66
2022-12-20T17:24:25.285Z,98343.84
2022-12-20T17:26:56.218Z,98345.75
2022-12-20T17:29:29.617Z,98344.94
2022-12-20T17:32:00.700Z,98340.00
2022-12-20T17:34:33.433Z,98347.84
2022-12-20T17:37:04.027Z,98342.69
2022-12-20T17:39:34.898Z,98331.47
2022-12-20T17:42:05.430Z,98329.75
2022-12-20T17:44:38.784Z,98321.16
2022-12-20T17:47:09.551Z,98323.78
2022-12-20T17:49:40.375Z,98311.72
2022-12-20T17:52:16.318Z,98305.75
2022-12-20T17:54:46.812Z,98308.38
2022-12-20T17:57:18.366Z,98307.59
2022-12-20T17:59:51.552Z,98304.28
2022-12-20T18:02:27.669Z,98306.03
2022-12-20T18:04:58.542Z,98302.78
2022-12-20T18:07:29.155Z,98296.72
2022-12-20T18:09:59.690Z,98296.94
2022-12-20T18:12:35.638Z,98295.25
2022-12-20T18:15:12.034Z,98287.59
2022-12-20T18:17:43.508Z,98289.44
2022-12-20T18:20:15.417Z,98285.28
2022-12-20T18:22:45.951Z,98282.78
2022-12-20T18:25:18.446Z,98281.22
2022-12-20T18:27:49.104Z,98277.00
2022-12-20T18:30:22.580Z,98270.22
2022-12-20T18:32:53.243Z,98276.34
2022-12-20T18:35:23.811Z,98268.72
2022-12-20T18:37:54.343Z,98266.25
2022-12-20T18:40:26.047Z,98268.94
2022-12-20T18:42:59.695Z,98264.69
2022-12-20T18:45:37.570Z,98264.81
2022-12-20T18:48:08.258Z,98259.78
2022-12-20T18:50:39.355Z,98269.47
2022-12-20T18:53:10.164Z,98266.06
2022-12-20T18:55:41.122Z,98262.72
2022-12-20T18:58:11.797Z,98263.72
2022-12-20T19:00:48.075Z,98258.56
2022-12-20T19:03:19.464Z,98257.00
2022-12-20T19:05:55.462Z,98256.28
2022-12-20T19:08:26.872Z,98251.25
2022-12-20T19:11:00.988Z,98246.31
2022-12-20T19:13:31.728Z,98236.91
2022-12-20T19:16:10.064Z,98232.69
2022-12-20T19:18:41.153Z,98237.19
2022-12-20T19:21:13.457Z,98235.63
2022-12-20T19:23:46.054Z,98234.06
2022-12-20T19:26:18.389Z,98222.91
2022-12-20T19:28:49.919Z,98220.50
2022-12-20T19:31:25.067Z,98231.81
2022-12-20T19:33:57.587Z,98219.84
2022-12-20T19:36:30.488Z,98220.75
2022-12-20T19:39:02.746Z,98221.72
2022-12-20T19:41:35.755Z,98211.31
2022-12-20T19:44:07.570Z,98213.09
2022-12-20T19:46:41.035Z,98213.09
2022-12-20T19:49:11.622Z,98210.56
2022-12-20T19:51:42.352Z,98208.94
2022-12-20T19:54:13.063Z,98213.31
2022-12-20T19:56:43.675Z,98215.97
2022-12-20T19:59:14.459Z,98218.66
2022-12-20T20:01:47.768Z,98225.66
2022-12-20T20:04:19.113Z,98222.28
2022-12-20T20:06:49.706Z,98226.72
2022-12-20T20:09:20.361Z,98225.06
2022-12-20T20:11:51.013Z,98227.75
2022-12-20T20:14:21.835Z,98227.81
2022-12-20T20:16:55.223Z,98223.56
2022-12-20T20:19:25.777Z,98203.94
2022-12-20T20:21:56.396Z,98215.16
2022-12-20T20:24:26.972Z,98210.91
2022-12-20T20:26:57.495Z,98211.03
2022-12-20T20:29:28.074Z,98202.38
2022-12-20T20:32:01.285Z,98211.03
2022-12-20T20:34:32.218Z,98204.13
2022-12-20T20:37:03.031Z,98204.13
2022-12-20T20:39:34.299Z,98192.91
2022-12-20T20:42:04.800Z,98189.59
2022-12-20T20:44:35.309Z,98188.09
2022-12-20T20:47:10.474Z,98190.94
2022-12-20T20:49:41.043Z,98185.19
2022-12-20T20:52:11.969Z,98194.94
2022-12-20T20:54:42.738Z,98192.44
2022-12-20T20:57:13.559Z,98184.69
2022-12-20T20:59:44.702Z,98184.81
2022-12-20T21:02:21.188Z,98181.47
2022-12-20T21:05:35.289Z,98171.97
2022-12-20T21:07:42.346Z,98143.16
2022-12-20T21:10:13.618Z,98170.28
2022-12-20T21:12:44.318Z,98167.69
2022-12-20T21:15:23.956Z,98164.16
2022-12-20T21:17:57.661Z,98166.78
2022-12-20T21:20:28.136Z,98163.25
2022-12-20T21:22:58.740Z,98170.16
2022-12-20T21:25:29.279Z,98169.25
2022-12-20T21:28:00.185Z,98159.75
2022-12-20T21:30:30.815Z,98161.56
2022-12-20T21:33:04.033Z,98154.69
2022-12-20T21:35:34.614Z,98145.25
2022-12-20T21:38:05.316Z,98141.84
2022-12-20T21:40:35.848Z,98135.84
2022-12-20T21:43:06.821Z,98130.69
2022-12-20T21:45:37.415Z,98131.63
2022-12-20T21:48:10.774Z,98129.72
2022-12-20T21:50:41.310Z,98116.72
2022-12-20T21:53:17.570Z,98114.97
2022-12-20T21:55:50.033Z,98119.31
2022-12-20T21:58:20.710Z,98113.25
2022-12-20T22:00:54.753Z,98107.28
2022-12-20T22:03:29.466Z,98102.19
2022-12-20T22:06:00.946Z,98106.63
2022-12-20T22:08:32.367Z,98097.19
2022-12-20T22:11:03.561Z,98095.50
2022-12-20T22:13:41.037Z,98094.75
2022-12-20T22:16:13.764Z,98090.47
2022-12-20T22:18:48.127Z,98065.06
2022-12-20T22:21:19.923Z,98094.91
2022-12-20T22:23:51.241Z,98094.16
2022-12-20T22:26:23.866Z,98093.31
2022-12-20T22:28:56.847Z,98089.16
2022-12-20T22:31:28.083Z,98088.16
2022-12-20T22:34:02.170Z,98086.78
2022-12-20T22:36:32.970Z,98090.16
2022-12-20T22:39:03.665Z,98079.41
2022-12-20T22:41:35.646Z,98084.13
2022-12-20T22:44:06.528Z,98080.00
2022-12-20T22:46:36.948Z,98083.38
2022-12-20T22:49:10.288Z,98082.28
2022-12-20T22:51:40.961Z,98088.72
2022-12-20T22:54:11.582Z,98090.63
2022-12-20T22:56:42.059Z,98088.09
2022-12-20T22:59:12.621Z,98079.56
2022-12-20T23:01:43.228Z,98071.88
2022-12-20T23:04:17.233Z,98067.63
2022-12-20T23:06:47.822Z,98069.47
2022-12-20T23:09:18.396Z,98055.84
2022-12-20T23:12:01.246Z,98058.41
2022-12-20T23:14:44.240Z,98049.84
2022-12-20T23:17:14.855Z,98048.31
2022-12-20T23:20:00.491Z,98048.53
2022-12-20T23:22:44.521Z,98048.66
2022-12-20T23:25:17.192Z,98047.06
2022-12-20T23:27:49.968Z,98042.09
2022-12-20T23:30:22.202Z,98039.69
2022-12-20T23:32:56.402Z,98037.41
2022-12-20T23:35:29.700Z,98041.16
2022-12-20T23:38:00.337Z,98034.56
2022-12-20T23:40:30.945Z,98030.59
2022-12-20T23:43:01.434Z,98024.56
2022-12-20T23:45:32.281Z,98033.28
2022-12-20T23:48:02.856Z,98026.59
2022-12-20T23:50:36.567Z,98030.97
2022-12-20T23:53:07.311Z,98031.38
2022-12-20T23:55:38.172Z,98007.03
2022-12-20T23:58:08.761Z,98017.47
